Time;durP1;ratioP1;P1;durP2;ratioP2;P2;SDS_P1;SDS_P2;PMS_P1;PMS_P2;Temp;Humidity;BMP_temperature;BMP_pressure;BME280_temperature;BME280_humidity;BME280_pressure;Samples;Min_cycle;Max_cycle;Signal;HPM_P1;HPM_P2
2022/06/09 00:00:59;;;;;;;26.73;24.80;;;;;;;;;;5099498;28;20477;-78
2022/06/09 00:03:29;;;;;;;26.97;24.97;;;;;;;;;;5099439;28;20487;-79
2022/06/09 00:05:57;;;;;;;26.90;24.77;;;;;;;;;;5099240;28;20490;-79
2022/06/09 00:08:25;;;;;;;27.17;24.93;;;;;;;;;;5099308;28;20471;-79
2022/06/09 00:10:53;;;;;;;26.27;24.27;;;;;;;;;;5099478;28;20463;-78
2022/06/09 00:13:21;;;;;;;25.17;23.27;;;;;;;;;;5099487;28;20444;-79
2022/06/09 00:15:49;;;;;;;25.00;23.20;;;;;;;;;;5099091;28;20412;-79
2022/06/09 00:18:16;;;;;;;25.27;23.43;;;;;;;;;;5099027;28;20509;-79
2022/06/09 00:20:47;;;;;;;25.27;23.47;;;;;;;;;;5080804;28;21269;-79
2022/06/09 00:23:16;;;;;;;25.17;23.20;;;;;;;;;;5099340;28;20990;-78
2022/06/09 00:25:44;;;;;;;25.00;23.30;;;;;;;;;;5099239;28;20418;-79
2022/06/09 00:28:11;;;;;;;23.63;22.03;;;;;;;;;;5099328;28;20459;-79
2022/06/09 00:30:39;;;;;;;24.37;22.57;;;;;;;;;;5099297;28;20438;-78
2022/06/09 00:33:06;;;;;;;23.77;22.17;;;;;;;;;;5080999;28;20528;-79
2022/06/09 00:35:34;;;;;;;24.00;22.30;;;;;;;;;;5098882;28;20968;-79
2022/06/09 00:38:02;;;;;;;22.43;20.83;;;;;;;;;;5099267;28;20785;-78
2022/06/09 00:40:30;;;;;;;23.80;22.20;;;;;;;;;;5099255;28;20437;-79
2022/06/09 00:42:57;;;;;;;22.40;21.10;;;;;;;;;;5098958;28;20423;-78
2022/06/09 00:45:26;;;;;;;22.33;20.83;;;;;;;;;;5098430;28;20449;-78
2022/06/09 00:47:55;;;;;;;23.40;21.70;;;;;;;;;;5099156;28;20476;-78
2022/06/09 00:50:26;;;;;;;23.30;21.70;;;;;;;;;;5099143;28;20800;-78
2022/06/09 00:52:56;;;;;;;23.33;21.83;;;;;;;;;;5099190;28;20516;-78
2022/06/09 00:55:26;;;;;;;21.70;20.40;;;;;;;;;;5099050;28;20444;-78
2022/06/09 00:57:55;;;;;;;24.37;22.77;;;;;;;;;;5099066;28;20449;-78
2022/06/09 01:00:24;;;;;;;23.07;21.57;;;;;;;;;;5099009;28;20836;-79
2022/06/09 01:02:53;;;;;;;22.37;21.10;;;;;;;;;;5097412;28;20434;-78
2022/06/09 01:05:22;;;;;;;23.67;22.10;;;;;;;;;;5095369;28;20430;-78
2022/06/09 01:07:51;;;;;;;23.97;22.37;;;;;;;;;;5095487;28;20459;-79
2022/06/09 01:10:19;;;;;;;23.17;21.77;;;;;;;;;;5095844;28;20438;-78
2022/06/09 01:12:49;;;;;;;23.30;21.90;;;;;;;;;;5095593;28;20456;-79
2022/06/09 01:15:18;;;;;;;23.60;22.10;;;;;;;;;;5095749;28;20520;-79
2022/06/09 01:17:53;;;;;;;22.83;21.37;;;;;;;;;;5095617;28;20441;-78
2022/06/09 01:20:32;;;;;;;24.93;23.23;;;;;;;;;;5095389;28;20491;-78
2022/06/09 01:23:15;;;;;;;24.13;22.53;;;;;;;;;;5095581;28;20408;-78
2022/06/09 01:26:06;;;;;;;23.00;21.60;;;;;;;;;;5095468;28;20437;-78
2022/06/09 01:28:52;;;;;;;23.43;21.93;;;;;;;;;;4993232;28;20501;-79
2022/06/09 01:31:25;;;;;;;24.63;22.73;;;;;;;;;;4993733;28;20432;-78
2022/06/09 01:33:56;;;;;;;23.70;22.17;;;;;;;;;;4993315;28;20478;-78
2022/06/09 01:36:25;;;;;;;23.83;22.33;;;;;;;;;;4993152;28;20424;-78
2022/06/09 01:38:53;;;;;;;23.97;22.37;;;;;;;;;;4993397;28;20915;-79
2022/06/09 01:41:21;;;;;;;23.70;22.10;;;;;;;;;;4993230;28;20470;-79
2022/06/09 01:43:49;;;;;;;24.57;22.87;;;;;;;;;;4993156;28;20442;-78
2022/06/09 01:46:20;;;;;;;24.90;23.20;;;;;;;;;;4993120;28;20453;-78
2022/06/09 01:48:51;;;;;;;26.70;24.33;;;;;;;;;;4992964;28;20919;-79
2022/06/09 01:51:19;;;;;;;24.90;22.90;;;;;;;;;;4993107;28;20453;-79
2022/06/09 01:53:48;;;;;;;24.97;23.30;;;;;;;;;;4993084;28;20449;-79
2022/06/09 01:56:18;;;;;;;24.87;23.27;;;;;;;;;;4993043;28;20408;-78
2022/06/09 01:58:48;;;;;;;26.03;24.23;;;;;;;;;;4992862;28;20446;-78
2022/06/09 02:01:17;;;;;;;25.37;23.47;;;;;;;;;;4992845;28;20470;-78
2022/06/09 02:03:47;;;;;;;25.10;23.40;;;;;;;;;;4992823;28;20424;-78
2022/06/09 02:06:16;;;;;;;24.83;23.03;;;;;;;;;;5070892;28;20457;-78
2022/06/09 02:08:44;;;;;;;25.13;23.30;;;;;;;;;;5094247;28;20481;-78
2022/06/09 02:11:12;;;;;;;25.53;23.53;;;;;;;;;;5094566;28;20412;-78
2022/06/09 02:13:42;;;;;;;24.43;22.63;;;;;;;;;;5094285;28;20433;-79
2022/06/09 02:16:10;;;;;;;24.37;22.63;;;;;;;;;;5094374;28;20792;-79
2022/06/09 02:18:39;;;;;;;24.90;23.00;;;;;;;;;;5094519;28;20454;-78
2022/06/09 02:21:09;;;;;;;25.73;23.83;;;;;;;;;;5094084;28;20526;-78
2022/06/09 02:23:38;;;;;;;24.27;22.57;;;;;;;;;;5093966;28;20807;-79
2022/06/09 02:26:06;;;;;;;25.60;23.70;;;;;;;;;;5075618;28;20503;-79
2022/06/09 02:28:34;;;;;;;24.73;23.03;;;;;;;;;;5094184;28;20492;-79
2022/06/09 02:31:01;;;;;;;25.87;23.87;;;;;;;;;;5093929;28;20429;-79
2022/06/09 02:33:28;;;;;;;25.40;23.13;;;;;;;;;;5093679;28;20854;-78
2022/06/09 02:35:56;;;;;;;24.87;22.97;;;;;;;;;;5093759;28;20437;-78
2022/06/09 02:38:23;;;;;;;24.93;23.17;;;;;;;;;;5094040;28;20446;-78
2022/06/09 02:40:54;;;;;;;24.17;22.33;;;;;;;;;;5094047;28;20412;-79
2022/06/09 02:43:21;;;;;;;26.23;24.07;;;;;;;;;;5093559;28;20461;-78
2022/06/09 02:45:49;;;;;;;23.47;21.97;;;;;;;;;;5093528;28;20563;-79
2022/06/09 02:48:17;;;;;;;24.40;22.60;;;;;;;;;;5093834;28;20474;-78
2022/06/09 02:50:46;;;;;;;25.03;23.13;;;;;;;;;;5093750;28;20423;-78
2022/06/09 02:53:13;;;;;;;26.33;24.10;;;;;;;;;;5093736;28;20457;-78
2022/06/09 02:55:41;;;;;;;25.80;23.90;;;;;;;;;;5093382;28;20443;-79
2022/06/09 02:58:10;;;;;;;24.30;22.60;;;;;;;;;;5093605;28;20416;-79
2022/06/09 03:00:37;;;;;;;24.40;22.70;;;;;;;;;;5093166;28;20469;-78
2022/06/09 03:03:05;;;;;;;26.60;24.57;;;;;;;;;;5093069;28;20415;-79
2022/06/09 03:05:34;;;;;;;25.20;23.23;;;;;;;;;;5093516;28;20437;-79
2022/06/09 03:08:02;;;;;;;24.07;22.17;;;;;;;;;;5093115;28;20419;-79
2022/06/09 03:10:29;;;;;;;24.83;22.73;;;;;;;;;;5093184;28;20423;-78
2022/06/09 03:12:57;;;;;;;26.53;24.67;;;;;;;;;;5093460;28;20792;-78
2022/06/09 03:15:26;;;;;;;25.10;23.30;;;;;;;;;;5093497;28;20540;-79
2022/06/09 03:17:54;;;;;;;26.63;24.73;;;;;;;;;;5093298;28;20456;-78
2022/06/09 03:20:22;;;;;;;24.57;22.83;;;;;;;;;;5092915;28;20489;-78
2022/06/09 03:22:49;;;;;;;26.20;24.23;;;;;;;;;;5093094;28;20528;-79
2022/06/09 03:25:17;;;;;;;25.57;23.80;;;;;;;;;;5092905;28;20438;-79
2022/06/09 03:27:44;;;;;;;27.03;24.70;;;;;;;;;;5092348;28;21015;-78
2022/06/09 03:30:12;;;;;;;27.97;25.67;;;;;;;;;;5092827;28;20477;-79
2022/06/09 03:32:41;;;;;;;26.57;24.33;;;;;;;;;;5092862;28;20416;-78
2022/06/09 03:35:09;;;;;;;26.93;25.00;;;;;;;;;;5092765;28;20432;-79
2022/06/09 03:37:37;;;;;;;25.77;24.03;;;;;;;;;;5093033;28;20449;-78
2022/06/09 03:40:05;;;;;;;26.20;24.50;;;;;;;;;;5092861;28;20407;-78
2022/06/09 03:42:33;;;;;;;27.23;24.93;;;;;;;;;;5092736;28;20438;-78
2022/06/09 03:45:00;;;;;;;25.83;23.77;;;;;;;;;;5092769;28;20430;-78
2022/06/09 03:47:27;;;;;;;24.57;22.70;;;;;;;;;;5092681;28;20953;-79
2022/06/09 03:49:56;;;;;;;25.27;23.57;;;;;;;;;;5092575;28;20982;-79
2022/06/09 03:52:24;;;;;;;25.77;23.97;;;;;;;;;;5092911;28;20416;-79
2022/06/09 03:54:51;;;;;;;25.33;23.60;;;;;;;;;;5092953;28;20415;-78
2022/06/09 03:57:18;;;;;;;25.43;23.13;;;;;;;;;;5092872;28;20821;-79
2022/06/09 03:59:46;;;;;;;25.30;23.37;;;;;;;;;;5092811;28;20433;-79
2022/06/09 04:02:13;;;;;;;25.80;24.00;;;;;;;;;;5092414;28;20430;-79
2022/06/09 04:04:40;;;;;;;26.57;24.40;;;;;;;;;;5092670;28;20437;-78
2022/06/09 04:07:09;;;;;;;27.00;24.73;;;;;;;;;;5092917;28;20420;-79
2022/06/09 04:09:37;;;;;;;25.77;24.20;;;;;;;;;;5092897;28;20502;-78
2022/06/09 04:12:05;;;;;;;25.17;23.47;;;;;;;;;;5092750;28;20470;-76
2022/06/09 04:14:32;;;;;;;25.33;23.50;;;;;;;;;;5092678;28;20437;-75
2022/06/09 04:16:59;;;;;;;26.10;24.00;;;;;;;;;;5092224;28;20909;-78
2022/06/09 04:19:27;;;;;;;25.40;23.40;;;;;;;;;;5092699;28;20795;-79
2022/06/09 04:21:55;;;;;;;26.80;25.00;;;;;;;;;;5092247;28;20495;-79
2022/06/09 04:24:25;;;;;;;25.27;23.30;;;;;;;;;;5092358;28;20478;-75
2022/06/09 04:26:52;;;;;;;26.00;24.20;;;;;;;;;;5092469;28;20408;-75
2022/06/09 04:29:20;;;;;;;27.27;24.87;;;;;;;;;;5092262;28;20471;-76
2022/06/09 04:31:47;;;;;;;25.53;23.73;;;;;;;;;;5092668;28;20396;-79
2022/06/09 04:34:14;;;;;;;26.13;24.03;;;;;;;;;;5092060;28;20423;-79
2022/06/09 04:36:42;;;;;;;27.13;24.73;;;;;;;;;;5092181;28;21124;-75
2022/06/09 04:39:10;;;;;;;25.70;23.47;;;;;;;;;;5093988;28;20990;-76
2022/06/09 04:41:39;;;;;;;25.53;23.90;;;;;;;;;;5095926;28;20411;-76
2022/06/09 04:44:06;;;;;;;27.47;25.07;;;;;;;;;;5096359;28;20440;-79
2022/06/09 04:46:34;;;;;;;27.30;24.97;;;;;;;;;;5096218;28;20445;-78
2022/06/09 04:49:01;;;;;;;26.10;24.00;;;;;;;;;;5096159;28;20564;-78
2022/06/09 04:51:30;;;;;;;25.57;23.67;;;;;;;;;;5096080;28;20416;-76
2022/06/09 04:53:57;;;;;;;25.83;23.70;;;;;;;;;;5096068;28;20437;-76
2022/06/09 04:56:25;;;;;;;25.80;24.00;;;;;;;;;;5096035;28;20412;-78
2022/06/09 04:58:54;;;;;;;25.60;23.80;;;;;;;;;;5096196;28;20448;-78
2022/06/09 05:01:22;;;;;;;26.40;23.70;;;;;;;;;;5095706;28;20477;-78
2022/06/09 05:03:50;;;;;;;27.27;24.73;;;;;;;;;;5095715;28;20763;-75
2022/06/09 05:06:18;;;;;;;25.93;24.13;;;;;;;;;;5095416;28;20926;-76
2022/06/09 05:08:45;;;;;;;27.40;24.90;;;;;;;;;;5095633;28;20437;-76
2022/06/09 05:11:13;;;;;;;26.97;24.87;;;;;;;;;;5095441;28;20437;-78
2022/06/09 05:13:40;;;;;;;26.47;24.33;;;;;;;;;;5095728;28;20420;-79
2022/06/09 05:16:09;;;;;;;24.50;22.80;;;;;;;;;;5095524;28;20438;-75
2022/06/09 05:18:38;;;;;;;25.73;23.83;;;;;;;;;;5095596;28;20408;-75
2022/06/09 05:21:06;;;;;;;25.23;23.30;;;;;;;;;;5095380;28;20562;-75
2022/06/09 05:23:33;;;;;;;27.17;25.10;;;;;;;;;;5095108;28;20412;-79
2022/06/09 05:26:03;;;;;;;26.67;24.37;;;;;;;;;;5095072;28;20441;-78
2022/06/09 05:28:31;;;;;;;26.10;24.00;;;;;;;;;;5095286;28;20865;-75
2022/06/09 05:30:59;;;;;;;24.77;22.90;;;;;;;;;;5095249;28;20456;-75
2022/06/09 05:33:28;;;;;;;26.17;23.87;;;;;;;;;;5094812;28;20866;-75
2022/06/09 05:35:55;;;;;;;26.80;24.60;;;;;;;;;;5095210;28;20520;-75
2022/06/09 05:46:39;;;;;;;30.57;27.77;;;;;;;;;;5094761;28;20483;-79
2022/06/09 05:49:09;;;;;;;29.43;26.83;;;;;;;;;;5094149;28;20951;-76
2022/06/09 05:51:37;;;;;;;32.00;28.10;;;;;;;;;;5094648;28;20948;-75
2022/06/09 05:54:05;;;;;;;33.70;30.70;;;;;;;;;;5094569;28;20448;-76
2022/06/09 05:56:32;;;;;;;35.57;32.20;;;;;;;;;;5094533;28;20434;-75
2022/06/09 05:59:00;;;;;;;34.27;31.17;;;;;;;;;;5094842;28;20423;-75
2022/06/09 06:01:28;;;;;;;33.80;30.93;;;;;;;;;;5094658;28;20478;-75
2022/06/09 06:03:55;;;;;;;35.90;32.23;;;;;;;;;;5094613;28;20823;-76
2022/06/09 06:06:36;;;;;;;36.13;31.83;;;;;;;;;;5094663;28;20416;-76
2022/06/09 06:09:04;;;;;;;35.13;32.00;;;;;;;;;;5094759;28;20506;-75
2022/06/09 06:11:32;;;;;;;35.90;32.20;;;;;;;;;;5094447;28;20437;-75
2022/06/09 06:13:59;;;;;;;38.60;34.67;;;;;;;;;;5094610;28;20448;-75
2022/06/09 06:16:26;;;;;;;36.57;33.27;;;;;;;;;;5094697;28;20465;-75
2022/06/09 06:18:54;;;;;;;35.27;32.00;;;;;;;;;;5094029;28;20438;-75
2022/06/09 06:21:21;;;;;;;34.83;31.60;;;;;;;;;;5094027;28;20455;-75
2022/06/09 06:23:50;;;;;;;37.10;33.70;;;;;;;;;;5094412;28;20438;-78
2022/06/09 06:26:18;;;;;;;34.73;31.37;;;;;;;;;;5094361;28;20438;-81
2022/06/09 06:28:46;;;;;;;39.67;35.70;;;;;;;;;;5094240;28;20432;-89
2022/06/09 06:31:13;;;;;;;37.87;33.90;;;;;;;;;;5056101;28;20845;-82
2022/06/09 06:33:41;;;;;;;37.83;34.47;;;;;;;;;;5080638;28;20444;-76
2022/06/09 06:36:08;;;;;;;41.53;37.20;;;;;;;;;;5094119;28;20403;-75
2022/06/09 06:38:36;;;;;;;36.33;32.80;;;;;;;;;;5094133;28;20413;-76
2022/06/09 06:41:06;;;;;;;36.10;32.90;;;;;;;;;;5093939;28;20793;-76
2022/06/09 06:43:34;;;;;;;38.07;34.67;;;;;;;;;;5093901;28;20544;-76
2022/06/09 06:46:02;;;;;;;37.60;33.70;;;;;;;;;;5085569;28;20434;-76
2022/06/09 06:48:29;;;;;;;37.83;34.00;;;;;;;;;;5073569;28;20445;-77
2022/06/09 06:50:58;;;;;;;39.07;35.53;;;;;;;;;;5073124;28;20477;-76
2022/06/09 06:53:26;;;;;;;42.30;38.07;;;;;;;;;;5073172;28;20467;-76
2022/06/09 06:55:53;;;;;;;42.30;37.80;;;;;;;;;;5073024;28;20528;-76
2022/06/09 06:58:21;;;;;;;39.60;35.70;;;;;;;;;;5073529;28;20423;-76
2022/06/09 07:00:49;;;;;;;41.53;37.47;;;;;;;;;;5072590;28;20765;-76
2022/06/09 07:03:17;;;;;;;40.53;36.63;;;;;;;;;;5072882;28;20413;-76
2022/06/09 07:05:44;;;;;;;43.10;38.97;;;;;;;;;;5072919;28;20763;-76
2022/06/09 07:08:15;;;;;;;39.60;35.83;;;;;;;;;;5073395;28;20428;-75
2022/06/09 07:10:43;;;;;;;37.70;33.93;;;;;;;;;;5073011;28;20485;-75
2022/06/09 07:13:10;;;;;;;40.60;36.60;;;;;;;;;;5072945;28;20443;-75
2022/06/09 07:15:39;;;;;;;42.90;38.80;;;;;;;;;;5073063;28;20843;-76
2022/06/09 07:18:06;;;;;;;38.17;34.47;;;;;;;;;;5073021;28;20441;-76
2022/06/09 07:20:34;;;;;;;39.13;34.97;;;;;;;;;;5064085;28;20478;-76
2022/06/09 07:23:01;;;;;;;35.30;32.23;;;;;;;;;;5064815;28;20819;-77
2022/06/09 07:25:29;;;;;;;33.13;30.23;;;;;;;;;;5072987;28;20438;-77
2022/06/09 07:27:57;;;;;;;35.17;32.07;;;;;;;;;;5072553;28;20471;-77
2022/06/09 07:30:26;;;;;;;37.00;33.60;;;;;;;;;;5072593;28;20457;-77
2022/06/09 07:32:55;;;;;;;37.43;34.13;;;;;;;;;;5072242;28;20478;-77
2022/06/09 07:35:24;;;;;;;37.00;33.70;;;;;;;;;;5072809;28;20417;-79
2022/06/09 07:37:51;;;;;;;38.73;34.90;;;;;;;;;;5072627;28;20464;-81
2022/06/09 07:40:19;;;;;;;40.13;36.33;;;;;;;;;;5072904;28;20433;-84
2022/06/09 07:42:47;;;;;;;37.83;34.07;;;;;;;;;;5072467;28;20434;-80
2022/06/09 07:45:16;;;;;;;38.23;34.97;;;;;;;;;;5055398;28;20492;-80
2022/06/09 07:47:43;;;;;;;39.03;35.40;;;;;;;;;;5072477;28;20439;-76
2022/06/09 07:50:13;;;;;;;39.60;35.83;;;;;;;;;;5072404;28;20463;-77
2022/06/09 07:52:41;;;;;;;40.60;36.60;;;;;;;;;;5072499;28;20450;-77
2022/06/09 07:55:09;;;;;;;39.63;36.00;;;;;;;;;;5072697;28;20443;-77
2022/06/09 07:57:36;;;;;;;36.73;33.73;;;;;;;;;;5072347;28;20910;-77
2022/06/09 08:00:04;;;;;;;37.20;33.70;;;;;;;;;;5072472;28;20477;-76
2022/06/09 08:02:32;;;;;;;34.53;31.23;;;;;;;;;;5072701;28;20445;-77
2022/06/09 08:04:59;;;;;;;37.00;33.97;;;;;;;;;;5072176;28;20506;-78
2022/06/09 08:07:28;;;;;;;37.40;34.00;;;;;;;;;;5072534;28;20939;-77
2022/06/09 08:09:55;;;;;;;39.27;35.90;;;;;;;;;;5054412;28;20515;-76
2022/06/09 08:12:23;;;;;;;32.53;29.57;;;;;;;;;;5073370;28;20439;-77
2022/06/09 08:14:50;;;;;;;31.40;28.30;;;;;;;;;;5076575;28;20796;-77
2022/06/09 08:17:17;;;;;;;30.53;27.90;;;;;;;;;;5076273;28;20813;-76
2022/06/09 08:19:46;;;;;;;35.03;32.20;;;;;;;;;;5076315;28;20417;-77
2022/06/09 08:22:14;;;;;;;34.00;31.20;;;;;;;;;;5076173;28;20785;-77
2022/06/09 08:24:43;;;;;;;32.30;29.70;;;;;;;;;;5076137;28;20442;-77
2022/06/09 08:27:10;;;;;;;31.77;29.30;;;;;;;;;;5076341;28;20442;-77
2022/06/09 08:29:37;;;;;;;31.80;29.30;;;;;;;;;;5076237;28;20401;-77
2022/06/09 08:32:05;;;;;;;31.33;28.93;;;;;;;;;;5075973;28;20439;-77
2022/06/09 08:34:33;;;;;;;32.27;29.37;;;;;;;;;;5075724;28;20434;-77
2022/06/09 08:37:00;;;;;;;31.20;28.87;;;;;;;;;;5076019;28;20469;-77
2022/06/09 08:39:27;;;;;;;30.60;28.03;;;;;;;;;;5076087;28;20409;-77
2022/06/09 08:41:58;;;;;;;31.17;28.77;;;;;;;;;;5076240;28;20427;-77
2022/06/09 08:44:31;;;;;;;32.60;29.70;;;;;;;;;;5075685;28;20442;-77
2022/06/09 08:47:03;;;;;;;31.00;28.77;;;;;;;;;;5075980;28;20409;-77
2022/06/09 08:49:37;;;;;;;29.83;27.53;;;;;;;;;;5075794;28;20438;-88
2022/06/09 08:52:07;;;;;;;28.77;26.77;;;;;;;;;;5075322;28;20497;-75
2022/06/09 08:54:36;;;;;;;33.13;30.20;;;;;;;;;;5075660;28;20413;-76
2022/06/09 08:57:07;;;;;;;27.73;25.63;;;;;;;;;;5075456;28;20424;-76
2022/06/09 08:59:37;;;;;;;27.23;25.37;;;;;;;;;;5075625;28;20449;-75
2022/06/09 09:02:13;;;;;;;31.13;28.53;;;;;;;;;;5075437;28;20453;-76
2022/06/09 09:04:43;;;;;;;27.10;25.10;;;;;;;;;;5075528;28;20438;-76
2022/06/09 09:07:13;;;;;;;29.73;27.10;;;;;;;;;;5075338;28;20460;-75
2022/06/09 09:09:42;;;;;;;29.60;27.30;;;;;;;;;;5075264;28;20446;-76
2022/06/09 09:12:16;;;;;;;30.13;27.93;;;;;;;;;;5075031;28;20998;-76
2022/06/09 09:14:51;;;;;;;28.80;26.70;;;;;;;;;;5075559;28;20420;-77
2022/06/09 09:17:23;;;;;;;28.23;26.33;;;;;;;;;;5075409;28;20416;-79
2022/06/09 09:19:53;;;;;;;27.80;25.80;;;;;;;;;;5075314;28;20423;-77
2022/06/09 09:22:25;;;;;;;29.13;27.00;;;;;;;;;;5075083;28;20478;-76
2022/06/09 09:25:00;;;;;;;28.50;26.60;;;;;;;;;;5074320;28;20463;-77
2022/06/09 09:27:34;;;;;;;26.10;24.43;;;;;;;;;;5056848;28;20850;-76
2022/06/09 09:30:07;;;;;;;27.20;25.40;;;;;;;;;;5075099;28;20446;-76
2022/06/09 09:32:40;;;;;;;28.50;26.50;;;;;;;;;;5079767;28;20448;-81
2022/06/09 09:35:10;;;;;;;29.20;27.17;;;;;;;;;;5094951;28;20450;-77
2022/06/09 09:37:40;;;;;;;30.47;28.27;;;;;;;;;;5095363;28;20436;-77
2022/06/09 09:40:15;;;;;;;28.03;26.13;;;;;;;;;;5095187;28;20442;-77
2022/06/09 09:42:45;;;;;;;25.27;23.57;;;;;;;;;;5095002;28;20844;-77
2022/06/09 09:45:18;;;;;;;25.33;23.53;;;;;;;;;;5095112;28;20438;-78
2022/06/09 09:47:47;;;;;;;27.40;25.40;;;;;;;;;;5094979;28;20453;-78
2022/06/09 09:50:23;;;;;;;27.23;25.30;;;;;;;;;;5091968;28;20428;-76
2022/06/09 09:52:55;;;;;;;24.23;22.60;;;;;;;;;;5070528;28;20459;-78
2022/06/09 09:55:26;;;;;;;27.03;25.03;;;;;;;;;;5074627;28;20435;-77
2022/06/09 09:58:09;;;;;;;29.77;27.30;;;;;;;;;;5074497;28;20409;-77
2022/06/09 10:00:36;;;;;;;28.13;25.93;;;;;;;;;;5074299;28;20456;-77
2022/06/09 10:08:41;;;;;;;30.30;27.73;;;;;;;;;;5074231;28;20441;-78
2022/06/09 10:14:00;;;;;;;27.40;25.50;;;;;;;;;;5074110;28;20583;-77
2022/06/09 10:16:29;;;;;;;27.17;25.37;;;;;;;;;;5074058;28;20454;-77
2022/06/09 10:19:00;;;;;;;28.43;26.53;;;;;;;;;;5073684;28;20921;-77
2022/06/09 10:21:28;;;;;;;28.37;26.47;;;;;;;;;;5057898;28;20986;-77
2022/06/09 10:23:58;;;;;;;28.77;26.50;;;;;;;;;;5053759;28;20435;-77
2022/06/09 10:26:28;;;;;;;27.87;25.70;;;;;;;;;;5035921;28;20451;-77
2022/06/09 10:28:59;;;;;;;28.90;26.50;;;;;;;;;;5049176;28;20425;-78
2022/06/09 10:31:36;;;;;;;27.53;25.53;;;;;;;;;;5053671;28;20487;-77
2022/06/09 10:34:08;;;;;;;27.03;25.20;;;;;;;;;;5053739;28;20840;-77
2022/06/09 10:36:41;;;;;;;27.97;25.33;;;;;;;;;;5035613;28;20961;-77
2022/06/09 10:39:13;;;;;;;25.60;23.83;;;;;;;;;;5053665;28;20940;-77
2022/06/09 10:41:43;;;;;;;25.73;23.87;;;;;;;;;;5053820;28;20443;-77
2022/06/09 10:44:16;;;;;;;27.23;25.20;;;;;;;;;;5053807;28;20493;-77
2022/06/09 10:55:14;;;;;;;26.83;24.93;;;;;;;;;;5053484;28;20439;-76
2022/06/09 10:55:27;;;;;;;25.20;23.60;;;;;;;;;;5053399;28;20794;-76
2022/06/09 10:57:58;;;;;;;24.50;22.90;;;;;;;;;;5053078;28;20538;-77
2022/06/09 11:00:29;;;;;;;25.37;23.60;;;;;;;;;;5035257;28;20973;-77
2022/06/09 11:02:59;;;;;;;24.80;23.20;;;;;;;;;;5052892;28;20446;-77
2022/06/09 11:05:32;;;;;;;24.17;22.47;;;;;;;;;;5053467;28;20757;-76
2022/06/09 11:08:03;;;;;;;25.07;23.40;;;;;;;;;;5053131;28;20439;-77
2022/06/09 11:10:36;;;;;;;23.67;22.20;;;;;;;;;;5053349;28;20414;-77
2022/06/09 11:13:24;;;;;;;24.37;22.93;;;;;;;;;;5053330;28;20436;-77
2022/06/09 11:15:57;;;;;;;23.93;22.53;;;;;;;;;;5048080;28;20463;-78
2022/06/09 11:18:29;;;;;;;25.43;23.83;;;;;;;;;;5053069;28;20463;-78
2022/06/09 11:21:04;;;;;;;23.83;22.40;;;;;;;;;;5052666;28;20517;-78
2022/06/09 11:23:38;;;;;;;23.67;22.03;;;;;;;;;;5052772;28;20435;-78
2022/06/09 11:26:11;;;;;;;24.80;23.40;;;;;;;;;;5052862;28;20937;-81
2022/06/09 11:28:44;;;;;;;25.23;23.70;;;;;;;;;;5071174;28;20549;-79
2022/06/09 11:31:29;;;;;;;26.87;25.00;;;;;;;;;;5072798;28;20481;-77
2022/06/09 11:34:06;;;;;;;26.97;25.07;;;;;;;;;;5071992;28;20466;-78
2022/06/09 11:36:35;;;;;;;25.90;24.33;;;;;;;;;;5072685;28;20439;-77
2022/06/09 11:39:10;;;;;;;26.43;24.70;;;;;;;;;;5072719;28;20442;-78
2022/06/09 11:41:54;;;;;;;25.13;23.67;;;;;;;;;;5072589;28;20407;-77
2022/06/09 11:44:25;;;;;;;25.90;24.23;;;;;;;;;;5072605;28;20446;-79
2022/06/09 11:46:53;;;;;;;25.90;24.30;;;;;;;;;;5071923;28;20431;-77
2022/06/09 11:49:24;;;;;;;27.30;25.43;;;;;;;;;;5072505;28;20503;-77
2022/06/09 11:51:52;;;;;;;25.80;24.20;;;;;;;;;;5072610;28;20513;-78
2022/06/09 11:54:37;;;;;;;26.97;25.47;;;;;;;;;;5072129;28;20413;-78
2022/06/09 11:57:19;;;;;;;24.87;23.27;;;;;;;;;;5072666;28;20417;-78
2022/06/09 11:59:54;;;;;;;25.50;23.67;;;;;;;;;;5069430;28;20528;-77
2022/06/09 12:02:46;;;;;;;24.97;23.20;;;;;;;;;;5072053;28;20438;-77
2022/06/09 12:05:25;;;;;;;25.60;24.00;;;;;;;;;;5052461;28;20458;-77
2022/06/09 12:08:04;;;;;;;26.80;25.07;;;;;;;;;;5071992;28;20916;-78
2022/06/09 12:10:42;;;;;;;28.07;26.00;;;;;;;;;;5071378;28;20918;-78
2022/06/09 12:13:18;;;;;;;26.03;24.33;;;;;;;;;;5072388;28;20454;-77
2022/06/09 12:15:50;;;;;;;29.00;27.03;;;;;;;;;;5072161;28;20464;-77
2022/06/09 12:18:29;;;;;;;26.90;24.90;;;;;;;;;;5072380;28;20880;-77
2022/06/09 12:21:04;;;;;;;27.17;25.43;;;;;;;;;;5083748;28;20488;-77
2022/06/09 12:23:33;;;;;;;26.67;24.87;;;;;;;;;;5092550;28;20433;-77
2022/06/09 12:26:27;;;;;;;24.33;22.60;;;;;;;;;;5092511;28;20449;-77
2022/06/09 12:29:00;;;;;;;24.17;22.67;;;;;;;;;;5071899;28;20781;-79
2022/06/09 12:31:30;;;;;;;23.73;22.13;;;;;;;;;;5072329;28;20486;-77
2022/06/09 12:34:00;;;;;;;23.10;21.80;;;;;;;;;;5073313;28;20458;-80
2022/06/09 12:36:38;;;;;;;24.93;23.43;;;;;;;;;;5076611;28;20841;-77
2022/06/09 12:39:07;;;;;;;23.63;22.23;;;;;;;;;;5075304;28;20423;-76
2022/06/09 12:41:37;;;;;;;23.17;21.77;;;;;;;;;;5076037;28;20541;-77
2022/06/09 12:44:08;;;;;;;25.87;23.90;;;;;;;;;;5076571;28;20451;-79
2022/06/09 12:46:40;;;;;;;25.40;23.77;;;;;;;;;;5074149;28;20454;-82
2022/06/09 12:49:16;;;;;;;24.67;23.07;;;;;;;;;;5073244;28;20441;-74
2022/06/09 12:51:45;;;;;;;25.67;24.00;;;;;;;;;;5073270;28;20918;-73
2022/06/09 12:54:21;;;;;;;26.40;24.70;;;;;;;;;;5074428;28;20993;-74
2022/06/09 12:56:57;;;;;;;25.63;23.67;;;;;;;;;;5074480;28;20431;-73
2022/06/09 12:59:26;;;;;;;23.37;22.07;;;;;;;;;;5074611;28;21008;-73
2022/06/09 13:01:55;;;;;;;24.60;23.10;;;;;;;;;;5080053;28;20462;-82
2022/06/09 13:04:26;;;;;;;25.00;23.37;;;;;;;;;;5083078;28;20811;-78
2022/06/09 13:06:56;;;;;;;23.70;22.30;;;;;;;;;;5079486;28;20436;-75
2022/06/09 13:09:26;;;;;;;25.77;24.17;;;;;;;;;;5080352;28;20553;-75
2022/06/09 13:14:40;;;;;;;23.80;22.33;;;;;;;;;;5081046;28;20914;-84
2022/06/09 13:17:10;;;;;;;24.00;22.70;;;;;;;;;;5079800;28;20591;-82
2022/06/09 13:19:38;;;;;;;25.13;23.53;;;;;;;;;;5079984;28;20433;-82
2022/06/09 13:22:08;;;;;;;22.53;21.23;;;;;;;;;;5076107;28;20857;-81
2022/06/09 13:24:37;;;;;;;23.63;22.33;;;;;;;;;;5076709;28;20940;-82
2022/06/09 13:27:05;;;;;;;24.33;22.73;;;;;;;;;;5080671;28;20449;-82
2022/06/09 13:29:35;;;;;;;25.60;23.57;;;;;;;;;;5096396;28;20424;-82
2022/06/09 13:32:10;;;;;;;23.03;21.73;;;;;;;;;;5096541;28;20481;-84
2022/06/09 13:34:43;;;;;;;24.23;22.27;;;;;;;;;;5095648;28;20408;-82
2022/06/09 13:37:16;;;;;;;24.30;22.90;;;;;;;;;;5096477;28;20408;-82
2022/06/09 13:39:49;;;;;;;24.87;23.27;;;;;;;;;;5096284;28;20441;-80
2022/06/09 13:42:22;;;;;;;23.50;22.00;;;;;;;;;;5095713;28;20433;-81
2022/06/09 13:44:56;;;;;;;25.57;23.60;;;;;;;;;;5096312;28;20418;-80
2022/06/09 13:47:25;;;;;;;25.87;24.27;;;;;;;;;;5097442;28;20532;-73
2022/06/09 13:50:03;;;;;;;27.00;25.30;;;;;;;;;;5096197;28;20824;-74
2022/06/09 13:52:33;;;;;;;27.07;25.33;;;;;;;;;;5098754;28;20858;-80
2022/06/09 13:55:01;;;;;;;27.30;25.60;;;;;;;;;;5096460;28;20438;-81
2022/06/09 13:57:31;;;;;;;25.10;23.60;;;;;;;;;;5094943;28;20415;-83
2022/06/09 14:00:00;;;;;;;26.00;24.40;;;;;;;;;;5097398;28;20821;-84
2022/06/09 14:02:30;;;;;;;24.27;22.97;;;;;;;;;;5101611;28;20412;-81
2022/06/09 14:04:57;;;;;;;24.53;23.13;;;;;;;;;;5097590;28;20420;-80
2022/06/09 14:07:27;;;;;;;25.40;23.70;;;;;;;;;;5096409;28;20814;-73
2022/06/09 14:09:55;;;;;;;23.90;22.60;;;;;;;;;;5096077;28;20416;-74
2022/06/09 14:12:23;;;;;;;23.40;22.10;;;;;;;;;;5095053;28;20479;-74
2022/06/09 14:14:51;;;;;;;23.50;22.13;;;;;;;;;;5095257;28;20412;-73
2022/06/09 14:17:20;;;;;;;23.97;22.40;;;;;;;;;;5095034;28;20536;-83
2022/06/09 14:19:48;;;;;;;24.43;23.03;;;;;;;;;;5100984;28;20834;-84
2022/06/09 14:22:15;;;;;;;22.10;21.00;;;;;;;;;;5119292;28;20516;-84
2022/06/09 14:24:43;;;;;;;23.40;21.80;;;;;;;;;;5121246;28;20432;-84
2022/06/09 14:27:14;;;;;;;21.87;20.73;;;;;;;;;;5111005;28;20419;-82
2022/06/09 14:29:41;;;;;;;21.60;20.50;;;;;;;;;;5097366;28;20811;-83
2022/06/09 14:32:14;;;;;;;22.07;20.80;;;;;;;;;;5096146;28;20887;-77
2022/06/09 14:34:42;;;;;;;21.57;20.37;;;;;;;;;;5095760;28;20438;-77
2022/06/09 14:37:10;;;;;;;21.57;20.07;;;;;;;;;;5097282;28;20445;-82
2022/06/09 14:39:38;;;;;;;20.90;19.60;;;;;;;;;;5096022;28;20433;-76
2022/06/09 14:42:06;;;;;;;21.93;20.73;;;;;;;;;;5098192;28;20423;-85
2022/06/09 14:44:35;;;;;;;23.00;21.60;;;;;;;;;;5096772;28;20425;-86
2022/06/09 14:47:03;;;;;;;22.00;20.80;;;;;;;;;;5096748;28;20405;-85
2022/06/09 14:49:30;;;;;;;21.10;19.90;;;;;;;;;;5097803;28;20795;-86
2022/06/09 14:51:57;;;;;;;23.10;21.67;;;;;;;;;;5077729;28;20509;-85
2022/06/09 14:54:25;;;;;;;23.00;21.70;;;;;;;;;;5095299;28;20415;-86
2022/06/09 14:56:53;;;;;;;22.43;21.13;;;;;;;;;;5099610;28;20441;-87